createdAt,value
2023-04-13T00:02:20.793Z,99308.50
2023-04-13T00:04:50.776Z,99311.16
2023-04-13T00:07:18.562Z,99303.13
2023-04-13T00:09:47.351Z,99300.41
2023-04-13T00:12:15.766Z,99308.13
2023-04-13T00:14:43.969Z,99305.72
2023-04-13T00:17:11.066Z,99302.22
2023-04-13T00:19:38.007Z,99302.84
2023-04-13T00:22:04.703Z,99302.56
2023-04-13T00:24:31.397Z,99304.28
2023-04-13T00:26:58.109Z,99295.66
2023-04-13T00:29:24.767Z,99293.53
2023-04-13T00:31:51.605Z,99292.09
2023-04-13T00:34:18.360Z,99283.09
2023-04-13T00:36:45.564Z,99290.56
2023-04-13T00:39:13.503Z,99286.22
2023-04-13T00:41:40.251Z,99292.09
2023-04-13T00:44:09.123Z,99287.91
2023-04-13T00:46:36.023Z,99286.53
2023-04-13T00:49:03.278Z,99291.75
2023-04-13T00:51:30.327Z,99294.19
2023-04-13T00:53:59.454Z,99295.75
2023-04-13T00:56:27.264Z,99296.28
2023-04-13T00:58:56.408Z,99290.88
2023-04-13T01:01:23.968Z,99286.06
2023-04-13T01:03:53.457Z,99283.94
2023-04-13T01:06:31.946Z,99293.16
2023-04-13T01:09:09.352Z,99296.13
2023-04-13T01:11:39.551Z,99294.78
2023-04-13T01:14:13.109Z,99297.72
2023-04-13T01:16:53.272Z,99284.16
2023-04-13T01:19:51.644Z,99287.13
2023-04-13T01:22:23.067Z,99285.41
2023-04-13T01:25:14.500Z,99292.91
2023-04-13T01:27:59.156Z,99281.22
2023-04-13T01:30:32.448Z,99290.06
2023-04-13T01:33:02.099Z,99286.81
2023-04-13T01:35:30.854Z,99290.50
2023-04-13T01:37:59.030Z,99299.69
2023-04-13T01:40:28.857Z,99294.25
2023-04-13T01:42:57.525Z,99286.53
2023-04-13T01:45:49.870Z,99293.72
2023-04-13T01:48:25.004Z,99296.19
2023-04-13T01:51:13.991Z,99309.25
2023-04-13T01:53:53.498Z,99300.94
2023-04-13T01:56:23.058Z,99307.09
2023-04-13T01:58:58.706Z,99307.03
2023-04-13T02:01:26.781Z,99315.03
2023-04-13T02:03:53.725Z,99319.13
2023-04-13T02:06:21.013Z,99312.31
2023-04-13T02:08:49.517Z,99311.78
2023-04-13T02:11:19.554Z,99307.53
2023-04-13T02:13:46.276Z,99311.38
2023-04-13T02:16:36.499Z,99306.69
2023-04-13T02:19:03.253Z,99301.88
2023-04-13T02:21:30.647Z,99311.69
2023-04-13T02:23:57.486Z,99314.94
2023-04-13T02:26:26.035Z,99305.84
2023-04-13T02:28:52.750Z,99302.91
2023-04-13T02:31:20.023Z,99314.84
2023-04-13T02:33:47.312Z,99313.66
2023-04-13T02:36:15.366Z,99313.91
2023-04-13T02:38:50.067Z,99309.63
2023-04-13T02:41:23.258Z,99306.38
2023-04-13T02:43:50.917Z,99303.28
2023-04-13T02:46:19.368Z,99299.06
2023-04-13T02:48:48.522Z,99306.00
2023-04-13T02:51:15.216Z,99300.59
2023-04-13T02:53:43.487Z,99301.72
2023-04-13T02:56:10.810Z,99299.06
2023-04-13T02:58:37.839Z,99301.88
2023-04-13T03:01:08.506Z,99295.44
2023-04-13T03:03:35.778Z,99302.81
2023-04-13T03:06:02.809Z,99303.88
2023-04-13T03:08:41.327Z,99299.50
2023-04-13T03:11:14.121Z,99297.75
2023-04-13T03:13:47.212Z,99307.16
2023-04-13T03:16:17.487Z,99311.66
2023-04-13T03:18:45.609Z,99311.94
2023-04-13T03:21:14.077Z,99305.28
2023-04-13T03:23:49.145Z,99311.31
2023-04-13T03:26:17.607Z,99312.06
2023-04-13T03:28:44.353Z,99317.91
2023-04-13T03:31:11.617Z,99309.53
2023-04-13T03:33:38.526Z,99300.53
2023-04-13T03:36:08.478Z,99305.00
2023-04-13T03:38:36.963Z,99299.22
2023-04-13T03:41:03.888Z,99297.66
2023-04-13T03:43:32.449Z,99299.28
2023-04-13T03:46:04.093Z,99297.22
2023-04-13T03:48:31.890Z,99297.56
2023-04-13T03:51:00.949Z,99304.72
2023-04-13T03:53:36.272Z,99309.44
2023-04-13T03:56:03.064Z,99311.66
2023-04-13T03:58:32.398Z,99307.81
2023-04-13T04:00:59.762Z,99311.75
2023-04-13T04:03:39.244Z,99316.22
2023-04-13T04:06:08.955Z,99312.41
2023-04-13T04:08:38.010Z,99319.28
2023-04-13T04:11:09.069Z,99319.03
2023-04-13T04:13:36.134Z,99323.72
2023-04-13T04:16:08.915Z,99328.00
2023-04-13T04:18:39.312Z,99331.69
2023-04-13T04:21:07.852Z,99332.06
2023-04-13T04:23:37.896Z,99330.19
2023-04-13T04:26:06.264Z,99326.56
2023-04-13T04:28:41.835Z,99331.06
2023-04-13T04:31:13.210Z,99340.53
2023-04-13T04:33:44.372Z,99340.59
2023-04-13T04:36:14.018Z,99343.50
2023-04-13T04:38:51.618Z,99343.75
2023-04-13T04:41:20.921Z,99355.69
2023-04-13T04:43:51.453Z,99351.22
2023-04-13T04:46:19.173Z,99353.38
2023-04-13T04:48:52.933Z,99360.31
2023-04-13T04:51:25.139Z,99357.75
2023-04-13T04:53:53.202Z,99350.38
2023-04-13T04:56:22.946Z,99360.16
2023-04-13T04:58:52.636Z,99364.03
2023-04-13T05:01:26.528Z,99373.00
2023-04-13T05:04:02.999Z,99362.97
2023-04-13T05:06:34.697Z,99369.41
2023-04-13T05:09:06.783Z,99367.81
2023-04-13T05:11:36.406Z,99375.47
2023-04-13T05:14:05.368Z,99380.78
2023-04-13T05:16:34.237Z,99380.66
2023-04-13T05:19:08.945Z,99387.06
2023-04-13T05:21:59.665Z,99380.94
2023-04-13T05:24:27.111Z,99391.41
2023-04-13T05:26:56.819Z,99389.53
2023-04-13T05:29:23.529Z,99390.38
2023-04-13T05:31:50.323Z,99385.59
2023-04-13T05:34:18.404Z,99389.41
2023-04-13T05:37:01.644Z,99395.56
2023-04-13T05:39:28.357Z,99397.66
2023-04-13T05:41:54.958Z,99398.66
2023-04-13T05:44:22.413Z,99394.59
2023-04-13T05:46:52.111Z,99406.84
2023-04-13T05:49:18.924Z,99405.97
2023-04-13T05:51:46.113Z,99408.81
2023-04-13T05:54:14.048Z,99408.50
2023-04-13T05:56:47.240Z,99415.47
2023-04-13T05:59:14.402Z,99421.44
2023-04-13T06:01:41.296Z,99424.19
2023-04-13T06:04:10.037Z,99430.56
2023-04-13T06:06:36.841Z,99430.53
2023-04-13T06:09:06.453Z,99425.09
2023-04-13T06:11:33.237Z,99428.16
2023-04-13T06:14:00.293Z,99423.31
2023-04-13T06:16:27.100Z,99425.00
2023-04-13T06:18:54.681Z,99423.56
2023-04-13T06:21:21.428Z,99428.28
2023-04-13T06:23:49.230Z,99422.94
2023-04-13T06:26:28.835Z,99432.22
2023-04-13T06:28:57.190Z,99432.03
2023-04-13T06:31:27.727Z,99431.47
2023-04-13T06:33:56.745Z,99433.22
2023-04-13T06:36:27.920Z,99436.44
2023-04-13T06:38:56.483Z,99430.53
2023-04-13T06:41:23.547Z,99442.56
2023-04-13T06:43:50.869Z,99438.34
2023-04-13T06:46:32.290Z,99437.88
2023-04-13T06:49:07.490Z,99440.75
2023-04-13T06:51:34.296Z,99442.22
2023-04-13T06:54:01.222Z,99437.53
2023-04-13T06:56:28.118Z,99444.97
2023-04-13T06:59:00.823Z,99449.31
2023-04-13T07:01:29.048Z,99440.19
2023-04-13T07:03:56.809Z,99449.31
2023-04-13T07:06:24.353Z,99452.63
2023-04-13T07:08:52.556Z,99449.28
2023-04-13T07:11:19.305Z,99453.19
2023-04-13T07:13:47.266Z,99463.16
2023-04-13T07:16:15.706Z,99456.84
2023-04-13T07:18:45.818Z,99461.59
2023-04-13T07:21:12.528Z,99471.56
2023-04-13T07:23:55.466Z,99464.53
2023-04-13T07:26:22.979Z,99465.22
2023-04-13T07:28:49.917Z,99462.53
2023-04-13T07:31:17.436Z,99477.16
2023-04-13T07:33:47.612Z,99462.53
2023-04-13T07:36:17.892Z,99471.38
2023-04-13T07:38:49.020Z,99463.72
2023-04-13T07:41:22.031Z,99468.00
2023-04-13T07:43:52.339Z,99470.50
2023-04-13T07:46:20.520Z,99481.16
2023-04-13T07:48:49.495Z,99474.69
2023-04-13T07:51:23.041Z,99478.16
2023-04-13T07:53:52.499Z,99480.53
2023-04-13T07:56:19.867Z,99479.22
2023-04-13T07:58:46.662Z,99481.00
2023-04-13T08:01:13.286Z,99472.25
2023-04-13T08:03:40.036Z,99479.84
2023-04-13T08:06:14.215Z,99487.25
2023-04-13T08:08:41.371Z,99474.81
2023-04-13T08:11:08.709Z,99485.13
2023-04-13T08:13:35.830Z,99473.25
2023-04-13T08:16:03.082Z,99479.19
2023-04-13T08:18:32.125Z,99486.44
2023-04-13T08:21:00.037Z,99481.13
2023-04-13T08:23:29.285Z,99471.50
2023-04-13T08:25:57.588Z,99488.53
2023-04-13T08:28:24.355Z,99494.47
2023-04-13T08:30:51.358Z,99494.72
2023-04-13T08:33:18.605Z,99492.59
2023-04-13T08:35:45.538Z,99494.91
2023-04-13T08:38:13.999Z,99500.28
2023-04-13T08:40:48.873Z,99506.28
2023-04-13T08:43:21.836Z,99485.06
2023-04-13T08:45:48.953Z,99500.38
2023-04-13T08:48:19.248Z,99505.47
2023-04-13T08:50:48.219Z,99500.28
2023-04-13T08:53:18.188Z,99503.66
2023-04-13T08:55:47.653Z,99498.16
2023-04-13T08:58:23.381Z,99502.97
2023-04-13T09:00:51.016Z,99494.72
2023-04-13T09:03:24.725Z,99493.31
2023-04-13T09:06:02.119Z,99491.75
2023-04-13T09:08:35.791Z,99487.56
2023-04-13T09:11:05.359Z,99498.81
2023-04-13T09:13:32.079Z,99499.56
2023-04-13T09:16:01.460Z,99503.72
2023-04-13T09:18:55.530Z,99513.00
2023-04-13T09:21:23.479Z,99517.44
2023-04-13T09:23:58.002Z,99516.53
2023-04-13T09:26:25.512Z,99513.53
2023-04-13T09:28:56.069Z,99519.69
2023-04-13T09:31:23.211Z,99524.00
2023-04-13T09:33:51.994Z,99524.09
2023-04-13T09:36:21.490Z,99529.25
2023-04-13T09:38:57.295Z,99530.47
2023-04-13T09:41:36.101Z,99535.28
2023-04-13T09:44:34.623Z,99532.22
2023-04-13T09:47:03.378Z,99543.72
2023-04-13T09:49:42.426Z,99538.72
2023-04-13T09:52:25.257Z,99542.81
2023-04-13T09:54:53.428Z,99545.53
2023-04-13T09:57:31.026Z,99535.94
2023-04-13T10:00:01.379Z,99538.56
2023-04-13T10:02:39.477Z,99536.41
2023-04-13T10:05:09.255Z,99538.22
2023-04-13T10:07:38.092Z,99541.72
2023-04-13T10:10:04.945Z,99539.53
2023-04-13T10:12:34.341Z,99534.13
2023-04-13T10:15:30.196Z,99539.31
2023-04-13T10:18:09.838Z,99528.38
2023-04-13T10:20:36.886Z,99531.53
2023-04-13T10:23:05.277Z,99544.13
2023-04-13T10:25:34.089Z,99543.94
2023-04-13T10:28:02.666Z,99543.94
2023-04-13T10:30:29.380Z,99537.19
2023-04-13T10:33:09.602Z,99537.13
2023-04-13T10:35:37.418Z,99540.56
2023-04-13T10:38:05.154Z,99544.53
2023-04-13T10:40:48.342Z,99536.22
2023-04-13T10:43:26.646Z,99540.88
2023-04-13T10:46:10.792Z,99527.28
2023-04-13T10:48:37.767Z,99530.16
2023-04-13T10:51:04.482Z,99531.25
2023-04-13T10:53:32.745Z,99535.75
2023-04-13T10:56:00.181Z,99536.34
2023-04-13T10:58:31.876Z,99540.53
2023-04-13T11:00:59.493Z,99531.13
2023-04-13T11:03:29.224Z,99539.72
2023-04-13T11:05:58.173Z,99540.47
2023-04-13T11:08:24.978Z,99544.53
2023-04-13T11:10:53.572Z,99541.97
2023-04-13T11:13:21.450Z,99536.41
2023-04-13T11:15:49.596Z,99537.31
2023-04-13T11:18:28.090Z,99538.97
2023-04-13T11:20:55.243Z,99534.09
2023-04-13T11:23:24.212Z,99536.84
2023-04-13T11:25:58.052Z,99540.66
2023-04-13T11:28:35.648Z,99543.59
2023-04-13T11:31:02.333Z,99540.41
2023-04-13T11:33:31.110Z,99534.69
2023-04-13T11:36:00.208Z,99542.81
2023-04-13T11:38:28.177Z,99532.91
2023-04-13T11:43:34.880Z,99529.91
2023-04-13T11:46:02.043Z,99532.34
2023-04-13T11:48:29.109Z,99534.22
2023-04-13T11:50:57.849Z,99523.56
2023-04-13T11:53:24.568Z,99529.00
2023-04-13T11:55:53.623Z,99524.31
2023-04-13T11:58:21.205Z,99522.38
2023-04-13T12:00:48.632Z,99519.66
2023-04-13T12:05:47.408Z,99529.66
2023-04-13T12:08:24.531Z,99521.03
2023-04-13T12:11:36.606Z,99524.53
2023-04-13T12:17:01.602Z,99512.25
2023-04-13T12:19:22.865Z,99510.94
2023-04-13T12:21:52.684Z,99503.69
2023-04-13T12:24:19.965Z,99510.94
2023-04-13T12:29:16.262Z,99514.44
2023-04-13T12:31:45.466Z,99510.41
2023-04-13T12:34:12.323Z,99509.59
2023-04-13T12:36:39.963Z,99520.13
2023-04-13T12:39:06.830Z,99509.63
2023-04-13T12:41:33.671Z,99513.41
2023-04-13T12:44:01.284Z,99509.34
2023-04-13T12:46:28.259Z,99507.72
2023-04-13T12:48:55.193Z,99495.91
2023-04-13T12:51:21.833Z,99499.94
2023-04-13T12:53:48.464Z,99494.53
2023-04-13T12:56:15.979Z,99498.84
2023-04-13T12:58:42.782Z,99494.56
2023-04-13T13:01:09.924Z,99496.44
2023-04-13T13:03:37.121Z,99513.41
2023-04-13T13:06:05.619Z,99529.69
2023-04-13T13:08:35.436Z,99536.31
2023-04-13T13:11:03.486Z,99551.31
2023-04-13T13:13:30.477Z,99549.88
2023-04-13T13:15:58.803Z,99550.53
2023-04-13T13:18:35.126Z,99544.91
2023-04-13T13:21:09.341Z,99536.03
2023-04-13T13:23:36.107Z,99539.75
2023-04-13T13:26:22.058Z,99531.13
2023-04-13T13:28:52.141Z,99526.69
2023-04-13T13:31:19.682Z,99526.56
2023-04-13T13:33:48.216Z,99535.28
2023-04-13T13:36:17.422Z,99531.59
2023-04-13T13:38:44.154Z,99532.97
2023-04-13T13:41:10.883Z,99534.38
2023-04-13T13:43:38.116Z,99536.50
2023-04-13T13:46:08.205Z,99527.88
2023-04-13T13:48:39.409Z,99534.25
2023-04-13T13:51:21.818Z,99532.06
2023-04-13T13:53:48.744Z,99521.25
2023-04-13T13:56:15.578Z,99519.66
2023-04-13T13:58:42.199Z,99527.22
2023-04-13T14:01:08.854Z,99530.53
2023-04-13T14:03:36.383Z,99528.16
2023-04-13T14:06:03.092Z,99523.59
2023-04-13T14:08:29.751Z,99534.91
2023-04-13T14:10:56.569Z,99526.81
2023-04-13T14:13:23.362Z,99535.69
2023-04-13T14:15:50.167Z,99527.38
2023-04-13T14:18:16.879Z,99527.66
2023-04-13T14:20:43.660Z,99526.56
2023-04-13T14:23:10.808Z,99518.25
2023-04-13T14:25:41.008Z,99521.50
2023-04-13T14:28:09.154Z,99528.22
2023-04-13T14:30:36.291Z,99542.72
2023-04-13T14:33:06.602Z,99543.81
2023-04-13T14:35:33.894Z,99558.56
2023-04-13T14:38:00.532Z,99565.88
2023-04-13T14:40:28.260Z,99563.97
2023-04-13T14:42:54.995Z,99556.75
2023-04-13T14:45:22.066Z,99548.59
2023-04-13T14:47:48.973Z,99530.59
2023-04-13T14:50:16.596Z,99539.22
2023-04-13T14:52:44.802Z,99530.91
2023-04-13T14:55:12.021Z,99532.53
2023-04-13T14:57:39.873Z,99533.84
2023-04-13T15:00:28.416Z,99529.53
2023-04-13T15:02:55.563Z,99524.91
2023-04-13T15:05:23.134Z,99530.59
2023-04-13T15:07:50.729Z,99534.91
2023-04-13T15:10:18.385Z,99535.91
2023-04-13T15:12:45.265Z,99535.66
2023-04-13T15:15:11.908Z,99545.56
2023-04-13T15:17:38.696Z,99539.78
2023-04-13T15:20:07.531Z,99542.59
2023-04-13T15:22:35.885Z,99548.59
2023-04-13T15:25:02.895Z,99540.78
2023-04-13T15:27:29.854Z,99553.97
2023-04-13T15:30:03.503Z,99554.25
2023-04-13T15:32:34.113Z,99558.00
2023-04-13T15:35:00.881Z,99562.66
2023-04-13T15:37:27.868Z,99569.66
2023-04-13T15:39:54.897Z,99568.03
2023-04-13T15:42:22.387Z,99562.34
2023-04-13T15:44:48.996Z,99565.56
2023-04-13T15:47:15.676Z,99570.72
2023-04-13T15:49:42.579Z,99574.97
2023-04-13T15:52:09.258Z,99575.84
2023-04-13T15:54:36.011Z,99568.84
2023-04-13T15:57:02.725Z,99572.88
2023-04-13T15:59:30.540Z,99576.34
2023-04-13T16:01:57.362Z,99568.78
2023-04-13T16:04:24.156Z,99571.50
2023-04-13T16:07:04.993Z,99576.41
2023-04-13T16:09:36.483Z,99591.16
2023-04-13T16:12:03.228Z,99599.28
2023-04-13T16:14:29.905Z,99609.50
2023-04-13T16:17:00.228Z,99621.03
2023-04-13T16:19:27.782Z,99619.38
2023-04-13T16:21:54.459Z,99623.72
2023-04-13T16:24:21.302Z,99613.97
2023-04-13T16:26:48.043Z,99620.47
2023-04-13T16:29:14.729Z,99623.94
2023-04-13T16:31:44.653Z,99629.03
2023-04-13T16:34:24.920Z,99631.13
2023-04-13T16:36:53.232Z,99645.44
2023-04-13T16:39:20.980Z,99643.50
2023-04-13T16:41:47.630Z,99643.78
2023-04-13T16:44:14.254Z,99640.22
2023-04-13T16:46:41.015Z,99632.69
2023-04-13T16:49:07.783Z,99631.69
2023-04-13T16:51:34.421Z,99632.50
2023-04-13T16:54:03.565Z,99629.25
2023-04-13T16:56:30.504Z,99639.44
2023-04-13T16:58:57.556Z,99635.97
2023-04-13T17:01:25.547Z,99633.56
2023-04-13T17:03:53.375Z,99631.19
2023-04-13T17:06:21.090Z,99631.84
2023-04-13T17:08:48.142Z,99629.16
2023-04-13T17:11:14.772Z,99633.28
2023-04-13T17:13:41.628Z,99627.91
2023-04-13T17:16:09.557Z,99630.56
2023-04-13T17:18:36.583Z,99633.25
2023-04-13T17:21:03.533Z,99639.47
2023-04-13T17:23:30.575Z,99642.38
2023-04-13T17:26:00.233Z,99649.91
2023-04-13T17:28:27.209Z,99649.22
2023-04-13T17:30:53.967Z,99651.72
2023-04-13T17:33:20.773Z,99657.38
2023-04-13T17:35:47.428Z,99665.56
2023-04-13T17:38:14.311Z,99676.63
2023-04-13T17:40:41.064Z,99675.50
2023-04-13T17:43:08.902Z,99686.16
2023-04-13T17:45:36.406Z,99683.50
2023-04-13T17:48:04.577Z,99670.09
2023-04-13T17:50:32.874Z,99674.44
2023-04-13T17:53:04.116Z,99682.94
2023-04-13T17:55:31.365Z,99708.56
2023-04-13T17:57:58.094Z,99716.06
2023-04-13T18:00:26.914Z,99716.63
2023-04-13T18:02:54.241Z,99709.00
2023-04-13T18:05:21.758Z,99714.56
2023-04-13T18:07:48.552Z,99715.38
2023-04-13T18:10:15.309Z,99709.78
2023-04-13T18:12:41.989Z,99700.22
2023-04-13T18:15:09.281Z,99694.53
2023-04-13T18:17:36.903Z,99681.38
2023-04-13T18:20:05.122Z,99669.75
2023-04-13T18:22:32.620Z,99675.75
2023-04-13T18:24:59.339Z,99669.56
2023-04-13T18:27:27.506Z,99666.28
2023-04-13T18:29:57.182Z,99670.78
2023-04-13T18:32:23.904Z,99671.28
2023-04-13T18:34:50.698Z,99679.03
2023-04-13T18:37:17.397Z,99687.25
2023-04-13T18:39:44.847Z,99691.44
2023-04-13T18:42:11.773Z,99686.44
2023-04-13T18:44:38.463Z,99686.97
2023-04-13T18:47:05.780Z,99696.19
2023-04-13T18:49:32.564Z,99698.56
2023-04-13T18:51:59.402Z,99699.94
2023-04-13T18:54:26.112Z,99702.19
2023-04-13T18:56:52.740Z,99706.50
2023-04-13T18:59:19.360Z,99709.38
2023-04-13T19:01:46.664Z,99706.81
2023-04-13T19:04:13.474Z,99701.66
2023-04-13T19:06:40.193Z,99705.75
2023-04-13T19:09:06.960Z,99700.13
2023-04-13T19:11:51.753Z,99696.09
2023-04-13T19:14:18.500Z,99711.22
2023-04-13T19:16:47.187Z,99716.22
2023-04-13T19:19:15.307Z,99714.81
2023-04-13T19:21:42.019Z,99717.53
2023-04-13T19:24:13.133Z,99723.84
2023-04-13T19:26:40.739Z,99707.47
2023-04-13T19:29:07.813Z,99708.28
2023-04-13T19:31:37.721Z,99709.66
2023-04-13T19:34:05.864Z,99721.59
2023-04-13T19:36:32.629Z,99722.41
2023-04-13T19:39:05.285Z,99721.34
2023-04-13T19:41:32.873Z,99727.78
2023-04-13T19:44:00.717Z,99722.41
2023-04-13T19:46:28.806Z,99719.16
2023-04-13T19:48:58.753Z,99733.94
2023-04-13T19:51:28.927Z,99731.16
2023-04-13T19:53:57.850Z,99731.78
2023-04-13T19:56:25.441Z,99728.19
2023-04-13T19:58:52.325Z,99723.94
2023-04-13T20:01:21.162Z,99720.06
2023-04-13T20:03:48.369Z,99727.28
2023-04-13T20:06:19.372Z,99725.94
2023-04-13T20:08:47.191Z,99726.97
2023-04-13T20:11:14.705Z,99734.28
2023-04-13T20:13:41.799Z,99737.16
2023-04-13T20:16:10.694Z,99737.97
2023-04-13T20:18:40.638Z,99733.66
2023-04-13T20:21:08.505Z,99732.31
2023-04-13T20:23:37.606Z,99736.66
2023-04-13T20:26:05.306Z,99744.44
2023-04-13T20:28:33.291Z,99746.13
2023-04-13T20:31:00.066Z,99748.53
2023-04-13T20:33:26.740Z,99753.44
2023-04-13T20:35:54.998Z,99755.88
2023-04-13T20:38:22.117Z,99760.78
2023-04-13T20:40:49.144Z,99759.28
2023-04-13T20:43:17.716Z,99758.31
2023-04-13T20:45:45.413Z,99754.81
2023-04-13T20:50:47.847Z,99763.44
2023-04-13T20:53:16.561Z,99759.03
2023-04-13T20:55:43.553Z,99764.75
2023-04-13T20:58:10.862Z,99759.94
2023-04-13T21:00:38.367Z,99761.81
2023-04-13T21:03:08.793Z,99761.63
2023-04-13T21:05:36.318Z,99767.81
2023-04-13T21:08:03.099Z,99769.63
2023-04-13T21:10:29.967Z,99768.06
2023-04-13T21:12:57.012Z,99768.81
2023-04-13T21:15:23.869Z,99764.25
2023-04-13T21:17:50.868Z,99757.91
2023-04-13T21:20:17.821Z,99755.31
2023-04-13T21:22:44.680Z,99751.84
2023-04-13T21:25:11.566Z,99764.25
2023-04-13T21:27:39.031Z,99764.25
2023-04-13T21:30:06.340Z,99752.66
2023-04-13T21:32:32.981Z,99757.53
2023-04-13T21:35:02.759Z,99762.50
2023-04-13T21:37:29.929Z,99767.09
2023-04-13T21:39:57.753Z,99767.34
2023-04-13T21:42:24.547Z,99765.63
2023-04-13T21:44:53.563Z,99757.03
2023-04-13T21:47:20.732Z,99761.09
2023-04-13T21:49:47.524Z,99764.56
2023-04-13T21:52:14.483Z,99759.09
2023-04-13T21:54:41.741Z,99757.72
2023-04-13T21:57:09.873Z,99755.09
2023-04-13T21:59:36.616Z,99758.41
2023-04-13T22:02:03.613Z,99760.22
2023-04-13T22:04:30.635Z,99752.72
2023-04-13T22:06:57.573Z,99756.31
2023-04-13T22:09:24.312Z,99757.34
2023-04-13T22:11:51.802Z,99753.72
2023-04-13T22:14:19.180Z,99749.78
2023-04-13T22:16:47.704Z,99748.53
2023-04-13T22:19:15.259Z,99751.13
2023-04-13T22:21:42.016Z,99758.94
2023-04-13T22:24:08.687Z,99761.06
2023-04-13T22:26:35.494Z,99767.06
2023-04-13T22:29:02.437Z,99766.31
2023-04-13T22:31:29.405Z,99768.03
2023-04-13T22:33:56.884Z,99765.06
2023-04-13T22:36:23.952Z,99762.59
2023-04-13T22:38:50.690Z,99755.41
2023-04-13T22:41:17.485Z,99758.34
2023-04-13T22:43:44.185Z,99761.44
2023-04-13T22:46:11.205Z,99761.44
2023-04-13T22:48:37.827Z,99759.13
2023-04-13T22:51:04.659Z,99771.75
2023-04-13T22:53:31.574Z,99772.25
2023-04-13T22:55:59.356Z,99761.91
2023-04-13T22:58:26.656Z,99773.47
2023-04-13T23:00:53.314Z,99775.41
2023-04-13T23:03:21.570Z,99782.47
2023-04-13T23:05:48.652Z,99779.31
2023-04-13T23:08:15.349Z,99776.34
2023-04-13T23:10:42.020Z,99781.50
2023-04-13T23:13:08.663Z,99781.94
2023-04-13T23:15:35.280Z,99800.63
2023-04-13T23:18:02.714Z,99792.66
2023-04-13T23:20:29.719Z,99790.16
2023-04-13T23:22:56.364Z,99793.97
2023-04-13T23:25:23.027Z,99806.72
2023-04-13T23:27:49.742Z,99810.91
2023-04-13T23:30:16.482Z,99807.34
2023-04-13T23:32:43.322Z,99803.22
2023-04-13T23:35:10.193Z,99804.53
2023-04-13T23:37:36.945Z,99804.91
2023-04-13T23:40:03.875Z,99804.84
2023-04-13T23:42:31.025Z,99798.25
2023-04-13T23:44:57.703Z,99796.47
2023-04-13T23:47:25.087Z,99805.78
2023-04-13T23:49:54.097Z,99815.94
2023-04-13T23:52:20.813Z,99805.47
2023-04-13T23:54:47.600Z,99812.38
2023-04-13T23:57:14.561Z,99812.44
2023-04-13T23:59:41.228Z,99806.53
